Time;durP1;ratioP1;P1;durP2;ratioP2;P2;SDS_P1;SDS_P2;PMS_P1;PMS_P2;Temp;Humidity;BMP_temperature;BMP_pressure;BME280_temperature;BME280_humidity;BME280_pressure;Samples;Min_cycle;Max_cycle;Signal;HPM_P1;HPM_P2
2021/12/11 10:12:52;;;;;;;24.27;18.07;;;;;;;8.78;59.55;98672.44;6929387;28;20221;-87
2021/12/11 10:16:17;;;;;;;18.37;14.97;;;;;;;8.89;58.80;98682.63;6925258;28;20211;-83
2021/12/11 10:19:40;;;;;;;17.87;15.53;;;;;;;9.11;58.41;98685.03;6926163;28;20216;-86
2021/12/11 10:23:04;;;;;;;20.60;17.33;;;;;;;8.88;58.17;98686.31;6918884;28;20280;-85
2021/12/11 10:26:27;;;;;;;20.13;17.37;;;;;;;8.94;58.89;98646.06;6932041;28;20239;-85
2021/12/11 10:30:09;;;;;;;25.90;19.30;;;;;;;9.02;58.52;98687.06;6934620;28;20203;-86
2021/12/11 10:33:32;;;;;;;18.07;15.20;;;;;;;8.60;58.53;98655.97;6930750;28;20248;-85
2021/12/11 10:37:02;;;;;;;16.07;13.37;;;;;;;8.82;58.69;98692.50;6922719;28;20554;-87
2021/12/11 10:40:31;;;;;;;15.93;13.87;;;;;;;8.77;58.31;98665.41;6923689;28;20220;-87
2021/12/11 10:44:00;;;;;;;18.37;13.87;;;;;;;8.83;58.00;98700.38;6905677;28;20212;-88
2021/12/11 10:47:31;;;;;;;16.97;14.57;;;;;;;8.44;58.49;98602.53;6939762;28;20233;-87
2021/12/11 10:50:56;;;;;;;16.20;13.93;;;;;;;8.70;57.90;98608.06;6937349;28;20229;-85
2021/12/11 10:54:19;;;;;;;17.57;13.63;;;;;;;9.20;57.37;98702.66;6928664;28;20292;-87
2021/12/11 10:57:42;;;;;;;13.47;12.07;;;;;;;8.72;57.54;98649.03;6932422;28;20210;-86
2021/12/11 11:04:49;;;;;;;13.03;11.03;;;;;;;8.98;58.09;98720.72;6828985;29;20200;-86
2021/12/11 11:08:24;;;;;;;10.73;9.23;;;;;;;8.76;56.52;98694.13;6850155;28;20219;-86
2021/12/11 11:11:47;;;;;;;10.13;9.03;;;;;;;8.99;56.38;98735.84;6940593;28;20240;-86
2021/12/11 11:15:10;;;;;;;11.03;9.93;;;;;;;9.18;56.04;98734.31;6931901;28;20224;-87
2021/12/11 11:18:32;;;;;;;13.77;11.47;;;;;;;8.42;57.18;98643.03;6929234;28;20202;-87
2021/12/11 11:21:58;;;;;;;11.80;10.40;;;;;;;8.77;56.81;98744.16;6929368;28;20234;-87
2021/12/11 11:25:25;;;;;;;9.47;8.57;;;;;;;8.93;57.06;98743.88;6932179;28;20249;-87
2021/12/11 11:28:47;;;;;;;9.90;8.90;;;;;;;8.62;56.75;98756.88;6929091;28;20217;-87
2021/12/11 11:32:11;;;;;;;14.80;10.17;;;;;;;8.36;57.23;98705.56;6931100;28;20250;-84
2021/12/11 11:35:34;;;;;;;14.77;9.70;;;;;;;8.60;57.46;98758.09;6928323;28;20264;-85
2021/12/11 11:39:00;;;;;;;13.40;10.17;;;;;;;8.87;56.79;98755.41;6926305;28;20291;-85
2021/12/11 11:42:24;;;;;;;11.97;9.53;;;;;;;8.99;56.91;98761.91;6928057;28;20248;-85
2021/12/11 11:45:52;;;;;;;9.93;8.07;;;;;;;8.57;56.13;98751.25;6932649;28;20220;-86
2021/12/11 11:49:17;;;;;;;13.30;9.60;;;;;;;8.91;56.22;98745.09;6933033;28;20196;-84
2021/12/11 11:52:42;;;;;;;13.43;9.57;;;;;;;9.14;55.99;98770.69;6929591;28;20236;-87
2021/12/11 11:56:07;;;;;;;11.37;9.10;;;;;;;9.23;55.60;98778.44;6928021;28;20204;-84
2021/12/11 11:59:29;;;;;;;11.23;9.33;;;;;;;9.38;53.99;98794.44;6933306;28;20210;-84
2021/12/11 12:02:53;;;;;;;9.00;7.57;;;;;;;9.50;54.30;98801.75;6934424;28;20236;-85
2021/12/11 12:06:22;;;;;;;12.30;9.60;;;;;;;9.40;54.97;98811.22;6935252;28;20716;-84
2021/12/11 12:09:46;;;;;;;12.13;9.30;;;;;;;9.02;54.33;98721.16;6934263;28;20213;-87
2021/12/11 12:13:19;;;;;;;12.60;10.00;;;;;;;9.28;54.00;98813.63;6933775;28;20239;-86
2021/12/11 12:16:42;;;;;;;8.67;7.77;;;;;;;9.42;53.88;98831.53;6936935;28;20212;-87
2021/12/11 12:20:21;;;;;;;20.43;15.50;;;;;;;9.22;53.81;98843.19;6939942;28;20269;-87
2021/12/11 12:23:43;;;;;;;9.00;7.60;;;;;;;9.52;53.00;98844.63;6939866;28;20209;-86
2021/12/11 12:27:09;;;;;;;23.50;14.93;;;;;;;9.68;53.18;98836.25;6939713;28;20230;-87
2021/12/11 12:30:40;;;;;;;11.03;9.60;;;;;;;9.39;52.09;98782.66;6937500;28;20208;-86
2021/12/11 12:34:06;;;;;;;10.80;8.47;;;;;;;9.40;52.65;98846.22;6934623;28;20194;-88
2021/12/11 12:37:29;;;;;;;22.70;16.30;;;;;;;9.25;53.00;98846.31;6935230;28;20221;-88
2021/12/11 12:45:40;;;;;;;7.93;7.13;;;;;;;9.63;51.24;98836.81;6932655;28;20214;-88
2021/12/11 12:57:42;;;;;;;8.50;7.70;;;;;;;9.89;50.88;98873.84;6919890;28;20193;-86
2021/12/11 13:01:59;;;;;;;;;;;;;;;;;;;;;
2021/12/11 13:40:45;;;;;;;10.43;8.60;;;;;;;8.73;53.17;98939.09;6696278;29;20197;-85
2021/12/11 13:44:58;;;;;;;12.03;9.80;;;;;;;8.78;52.97;98960.88;6734451;29;20624;-85
2021/12/11 13:48:30;;;;;;;11.77;9.30;;;;;;;9.17;52.67;98966.66;6834029;28;20247;-87
2021/12/11 13:52:17;;;;;;;11.13;8.77;;;;;;;9.44;51.57;98964.03;6853605;28;20237;-87
2021/12/11 14:04:21;;;;;;;8.23;7.43;;;;;;;9.48;50.44;98984.16;6851111;28;20191;-84
2021/12/11 14:07:42;;;;;;;11.83;8.17;;;;;;;9.61;50.50;98996.88;6849745;28;20287;-86
2021/12/11 14:11:05;;;;;;;9.73;8.73;;;;;;;9.77;50.73;98993.91;6856804;28;20725;-85
2021/12/11 14:14:28;;;;;;;9.93;8.93;;;;;;;8.95;50.49;98948.03;6911346;28;20225;-86
2021/12/11 14:18:02;;;;;;;10.10;8.87;;;;;;;8.86;50.92;98941.94;6923619;28;20308;-86
2021/12/11 14:21:25;;;;;;;12.77;10.53;;;;;;;9.50;50.91;99017.06;6941508;28;20233;-87
2021/12/11 14:24:48;;;;;;;18.53;13.63;;;;;;;9.52;51.30;98995.34;6936955;28;20212;-86
2021/12/11 14:28:26;;;;;;;13.93;11.40;;;;;;;9.50;50.66;99003.63;6936212;28;20232;-87
2021/12/11 14:31:47;;;;;;;13.53;11.30;;;;;;;9.62;50.10;99034.38;6933976;28;20315;-86
2021/12/11 14:35:11;;;;;;;11.93;9.97;;;;;;;9.46;51.25;99048.06;6928289;28;20208;-86
2021/12/11 14:38:34;;;;;;;11.40;10.17;;;;;;;9.59;50.67;99050.06;6930677;28;20201;-88
2021/12/11 14:49:57;;;;;;;11.87;9.30;;;;;;;9.98;49.69;99058.50;6860497;28;20204;-85
2021/12/11 14:53:27;;;;;;;13.80;9.40;;;;;;;10.10;49.17;99065.06;6934530;28;20238;-83
2021/12/11 14:56:52;;;;;;;13.70;9.47;;;;;;;9.90;49.93;99077.47;6926563;28;20193;-86
2021/12/11 15:00:17;;;;;;;11.33;9.23;;;;;;;9.53;50.25;99040.91;6927142;28;20210;-84
2021/12/11 15:03:40;;;;;;;9.67;8.53;;;;;;;9.65;50.25;99082.44;6924846;28;20217;-86
2021/12/11 15:07:02;;;;;;;8.07;7.27;;;;;;;9.98;49.89;99090.81;6927249;28;20229;-87
2021/12/11 15:10:27;;;;;;;10.53;8.17;;;;;;;10.02;50.24;99092.09;6925716;28;20592;-83
2021/12/11 15:14:09;;;;;;;9.20;8.17;;;;;;;9.71;50.34;99097.84;6928701;28;20280;-83
2021/12/11 15:17:31;;;;;;;14.10;9.73;;;;;;;9.28;51.00;99077.28;6921313;28;20236;-83
2021/12/11 15:20:55;;;;;;;28.13;16.50;;;;;;;9.65;51.11;99109.38;6919038;28;20591;-85
2021/12/11 15:24:20;;;;;;;24.57;15.40;;;;;;;9.55;52.04;99098.06;6930083;28;20199;-85
2021/12/11 15:27:51;;;;;;;18.50;13.37;;;;;;;9.58;50.92;99113.00;6938295;28;20322;-86
2021/12/11 15:31:20;;;;;;;14.30;10.73;;;;;;;9.57;50.41;99122.94;6937895;28;20228;-85
2021/12/11 15:35:02;;;;;;;11.77;9.00;;;;;;;9.68;51.69;99129.69;6931256;28;20283;-84
2021/12/11 15:39:20;;;;;;;;;;;;;;;;;;;;;
2021/12/11 15:55:18;;;;;;;;;;;;;;;;;;;;;
2021/12/11 15:59:43;;;;;;;8.40;7.30;;;;;;;9.21;51.35;99157.09;6878243;28;20205;-83
2021/12/11 16:03:45;;;;;;;10.87;8.47;;;;;;;9.24;52.24;99155.88;6927928;28;20233;-84
2021/12/11 16:38:13;;;;;;;18.03;13.40;;;;;;;8.74;55.48;99208.75;6613310;29;20212;-86
2021/12/11 16:46:17;;;;;;;20.03;14.63;;;;;;;8.20;57.61;99220.66;6584265;29;20249;-85
2021/12/11 16:49:41;;;;;;;26.63;17.47;;;;;;;8.14;58.17;99176.50;6735929;29;20335;-86
2021/12/11 16:53:06;;;;;;;23.07;14.93;;;;;;;8.42;57.76;99174.97;6790418;29;20230;-89
2021/12/11 16:57:10;;;;;;;17.53;13.73;;;;;;;8.72;56.21;99224.22;6792052;29;20716;-85
2021/12/11 17:04:17;;;;;;;16.87;13.20;;;;;;;7.73;57.57;99152.88;6702106;29;20203;-88
2021/12/11 17:07:39;;;;;;;15.70;12.07;;;;;;;8.57;56.23;99240.34;6746891;29;20540;-87
2021/12/11 17:11:01;;;;;;;16.17;13.10;;;;;;;8.62;55.83;99243.31;6780977;29;20676;-88
2021/12/11 17:14:23;;;;;;;17.27;12.70;;;;;;;8.38;55.38;99180.88;6846565;28;20208;-84
2021/12/11 17:17:45;;;;;;;15.83;12.13;;;;;;;8.77;55.57;99252.22;6883863;28;20238;-87
2021/12/11 17:21:13;;;;;;;18.00;13.73;;;;;;;8.52;55.76;99205.09;6899103;28;20226;-87
2021/12/11 17:24:36;;;;;;;20.00;16.13;;;;;;;8.81;56.23;99252.69;6914933;28;20214;-87
2021/12/11 17:28:00;;;;;;;21.77;14.60;;;;;;;8.49;56.39;99243.06;6902342;28;20248;-87
2021/12/11 18:02:00;;;;;;;34.63;23.57;;;;;;;8.30;58.13;99299.97;6707361;29;20245;-86
2021/12/11 18:05:30;;;;;;;23.67;18.43;;;;;;;8.31;57.90;99314.25;6766236;29;20224;-87
2021/12/11 18:08:59;;;;;;;23.47;18.10;;;;;;;7.85;59.70;99312.50;6827629;29;20234;-87
2021/12/11 18:13:23;;;;;;;23.10;17.43;;;;;;;8.30;59.40;99318.78;6839484;29;20231;-86
2021/12/11 18:16:50;;;;;;;23.20;17.57;;;;;;;8.55;58.51;99317.59;6793402;29;20243;-87
2021/12/11 18:20:20;;;;;;;23.33;17.63;;;;;;;8.46;58.92;99318.69;6818085;28;20211;-86
2021/12/11 18:27:23;;;;;;;19.60;14.83;;;;;;;8.10;58.48;99336.34;6928808;28;20819;-87
2021/12/11 18:30:45;;;;;;;18.87;13.83;;;;;;;8.37;57.64;99327.81;6930525;28;20236;-89
2021/12/11 18:34:10;;;;;;;21.23;17.70;;;;;;;8.08;56.23;99236.31;6931032;28;20216;-88
2021/12/11 18:37:34;;;;;;;18.73;15.30;;;;;;;8.28;58.09;99336.94;6932015;28;20229;-86
2021/12/11 18:41:03;;;;;;;49.23;26.83;;;;;;;8.39;56.48;99327.63;6927958;28;20227;-86
2021/12/11 18:44:25;;;;;;;44.33;25.40;;;;;;;8.42;57.18;99356.84;6920937;28;20212;-87
2021/12/11 18:47:47;;;;;;;23.63;16.87;;;;;;;7.80;57.77;99339.03;6928126;28;20278;-87
2021/12/11 18:51:18;;;;;;;25.00;18.10;;;;;;;8.47;57.84;99360.66;6927097;28;20223;-87
2021/12/11 18:54:46;;;;;;;16.00;13.33;;;;;;;7.90;59.04;99372.69;6928697;28;20222;-87
2021/12/11 19:23:46;;;;;;;22.73;14.87;;;;;;;8.74;55.35;99357.44;6686120;29;20675;-88
2021/12/11 19:31:09;;;;;;;14.17;11.83;;;;;;;8.84;54.77;99333.00;6745887;29;20248;-87
2021/12/11 20:09:07;;;;;;;18.20;12.23;;;;;;;9.20;55.68;99447.81;6608998;29;20310;-90
2021/12/11 20:12:32;;;;;;;15.13;12.47;;;;;;;9.38;55.09;99454.56;6625941;29;20258;-90
2021/12/11 20:16:14;;;;;;;15.57;13.20;;;;;;;9.39;55.46;99448.16;6767509;29;20668;-87
2021/12/11 20:20:03;;;;;;;15.40;12.37;;;;;;;9.44;55.53;99444.91;6824483;29;20235;-85
2021/12/11 20:27:58;;;;;;;13.37;10.33;;;;;;;9.50;54.60;99447.72;6771029;29;20237;-88
2021/12/11 20:31:24;;;;;;;13.27;10.50;;;;;;;9.68;53.73;99425.84;6890854;28;20235;-85
2021/12/11 20:34:48;;;;;;;14.83;10.27;;;;;;;9.34;54.41;99469.38;6927800;28;20618;-85
2021/12/11 20:38:12;;;;;;;12.57;10.20;;;;;;;8.81;55.51;99389.81;6930038;28;20209;-85
2021/12/11 20:41:42;;;;;;;14.53;11.17;;;;;;;9.22;54.95;99441.22;6930546;28;20237;-85
2021/12/11 20:49:25;;;;;;;12.90;10.30;;;;;;;9.68;54.26;99482.41;6922585;28;20229;-84
2021/12/11 20:53:13;;;;;;;14.30;11.27;;;;;;;9.24;55.25;99467.97;6879143;28;20298;-84
2021/12/11 21:00:45;;;;;;;16.63;12.27;;;;;;;9.32;55.92;99486.72;6920770;28;20227;-87
2021/12/11 21:04:10;;;;;;;16.40;13.43;;;;;;;9.07;56.84;99488.78;6930945;28;20207;-88
2021/12/11 21:07:37;;;;;;;16.57;12.80;;;;;;;9.34;55.68;99495.47;6935791;28;20215;-85
2021/12/11 21:11:02;;;;;;;16.50;12.43;;;;;;;9.27;55.98;99491.84;6934614;28;20232;-87
2021/12/11 21:14:26;;;;;;;18.07;13.63;;;;;;;8.91;56.33;99482.66;6927915;28;20736;-86
2021/12/11 21:17:50;;;;;;;16.80;12.73;;;;;;;9.04;56.39;99496.38;6933774;28;20217;-85
2021/12/11 21:21:16;;;;;;;19.30;13.80;;;;;;;8.92;56.94;99500.50;6933567;28;20242;-88
2021/12/11 21:24:41;;;;;;;19.50;13.53;;;;;;;8.89;57.09;99491.94;6933494;28;20246;-88
2021/12/11 21:28:07;;;;;;;14.47;11.20;;;;;;;8.68;57.22;99460.31;6931297;28;20236;-86
2021/12/11 21:31:32;;;;;;;15.50;11.67;;;;;;;9.18;55.54;99460.63;6929968;28;20478;-86
2021/12/11 21:35:05;;;;;;;16.00;11.40;;;;;;;8.69;56.82;99483.50;6930834;28;20213;-86
2021/12/11 21:38:31;;;;;;;14.00;10.90;;;;;;;9.04;56.14;99483.75;6931014;28;20205;-86
2021/12/11 21:46:29;;;;;;;15.40;12.03;;;;;;;9.10;55.92;99511.81;6928251;28;20218;-86
2021/12/11 21:50:33;;;;;;;15.47;11.03;;;;;;;8.96;56.23;99520.63;6931556;28;20240;-86
2021/12/11 21:58:25;;;;;;;14.23;10.40;;;;;;;8.88;56.27;99528.75;6861544;28;20218;-87
